Time;durP1;ratioP1;P1;durP2;ratioP2;P2;SDS_P1;SDS_P2;PMS_P1;PMS_P2;Temp;Humidity;BMP_temperature;BMP_pressure;BME280_temperature;BME280_humidity;BME280_pressure;Samples;Min_cycle;Max_cycle;Signal;HPM_P1;HPM_P2
2022/02/08 00:01:21;;;;;;;7.75;4.32;;;7.60;96.70;;;;;;5136919;27;20108;-78
2022/02/08 00:03:50;;;;;;;6.43;4.20;;;7.30;96.70;;;;;;5139562;27;20049;-79
2022/02/08 00:09:01;;;;;;;6.22;3.70;;;6.90;96.70;;;;;;5136701;27;20584;-78
2022/02/08 00:11:29;;;;;;;5.88;3.60;;;6.70;96.70;;;;;;5136355;27;20546;-79
2022/02/08 00:13:58;;;;;;;5.95;3.28;;;6.80;96.70;;;;;;5138053;27;20046;-78
2022/02/08 00:16:27;;;;;;;6.78;3.45;;;6.90;96.70;;;;;;5137358;27;20356;-78
2022/02/08 00:18:56;;;;;;;6.38;3.10;;;7.10;96.70;;;;;;5138548;27;20437;-77
2022/02/08 00:21:24;;;;;;;6.13;3.38;;;7.10;96.70;;;;;;5148801;27;20628;-78
2022/02/08 00:23:52;;;;;;;5.70;3.55;;;7.10;96.70;;;;;;5119425;27;20535;-78
2022/02/08 00:26:20;;;;;;;6.18;3.38;;;7.10;96.70;;;;;;5129289;27;20107;-79
2022/02/08 00:28:49;;;;;;;6.43;3.30;;;6.80;96.70;;;;;;5121503;27;20047;-79
2022/02/08 00:31:18;;;;;;;4.93;3.30;;;6.80;96.70;;;;;;5137575;27;21249;-79
2022/02/08 00:33:48;;;;;;;7.28;3.80;;;7.00;96.70;;;;;;5143434;27;20042;-78
2022/02/08 00:36:19;;;;;;;6.07;3.30;;;7.10;96.70;;;;;;5141805;27;20053;-79
2022/02/08 00:38:49;;;;;;;7.30;3.90;;;7.10;96.70;;;;;;5121238;27;20568;-78
2022/02/08 00:41:17;;;;;;;7.60;4.35;;;7.00;96.70;;;;;;5143665;27;20062;-78
2022/02/08 00:46:20;;;;;;;12.25;5.93;;;6.90;96.70;;;;;;5142732;27;20031;-79
2022/02/08 00:49:01;;;;;;;9.40;5.35;;;6.90;96.70;;;;;;5123957;27;20141;-78
2022/02/08 00:51:39;;;;;;;8.85;5.10;;;7.00;96.70;;;;;;5138549;27;20074;-79
2022/02/08 00:54:10;;;;;;;7.93;4.63;;;6.90;96.70;;;;;;5121328;27;20047;-79
2022/02/08 00:56:40;;;;;;;7.82;4.00;;;7.00;96.70;;;;;;5128405;27;20038;-78
2022/02/08 00:59:09;;;;;;;6.35;3.78;;;7.00;96.70;;;;;;5140615;27;20042;-79
2022/02/08 01:01:38;;;;;;;4.97;3.05;;;6.90;96.70;;;;;;5122933;27;20081;-78
2022/02/08 01:04:10;;;;;;;5.47;3.22;;;6.50;96.70;;;;;;5136766;27;20043;-78
2022/02/08 01:06:41;;;;;;;4.32;2.55;;;6.40;96.70;;;;;;5126906;27;20047;-78
2022/02/08 01:09:17;;;;;;;3.88;2.17;;;6.60;96.70;;;;;;5137602;27;20051;-79
2022/02/08 01:11:50;;;;;;;4.95;2.70;;;6.70;96.70;;;;;;5140258;27;20042;-79
2022/02/08 05:49:03;;;;;;;4.15;2.00;;;4.10;96.70;;;;;;5097531;27;20079;-76
2022/02/08 05:51:56;;;;;;;4.25;2.00;;;4.10;96.70;;;;;;5098106;28;20498;-78
2022/02/08 05:54:19;;;;;;;4.32;2.28;;;4.10;96.70;;;;;;5096250;27;20319;-77
2022/02/08 05:56:52;;;;;;;4.13;2.15;;;4.10;96.70;;;;;;5101094;27;20040;-77
2022/02/08 05:59:21;;;;;;;5.10;2.38;;;3.80;96.70;;;;;;5098807;27;20065;-77
2022/02/08 06:01:49;;;;;;;5.68;2.67;;;3.80;96.70;;;;;;5099214;28;20121;-78
2022/02/08 06:04:48;;;;;;;3.60;2.40;;;4.10;96.70;;;;;;5102198;27;20063;-77
2022/02/08 06:07:21;;;;;;;3.83;2.40;;;4.00;96.70;;;;;;5101245;27;20409;-77
2022/02/08 06:09:53;;;;;;;4.15;2.83;;;4.10;96.70;;;;;;5098106;27;20043;-77
2022/02/08 06:12:26;;;;;;;5.70;2.67;;;4.10;96.70;;;;;;5100253;27;20489;-77
2022/02/08 06:15:07;;;;;;;;;;;4.10;96.70;;;;;;5095980;28;20054;-78
2022/02/08 06:17:38;;;;;;;4.32;2.30;;;4.10;96.70;;;;;;5114047;27;20035;-77
2022/02/08 06:20:10;;;;;;;3.97;2.35;;;4.10;96.70;;;;;;5097559;27;20173;-76
2022/02/08 06:22:40;;;;;;;4.63;2.28;;;4.10;96.70;;;;;;5079719;28;20089;-77
2022/02/08 06:25:11;;;;;;;3.45;2.13;;;4.00;96.70;;;;;;5096120;27;20039;-78
2022/02/08 06:27:40;;;;;;;3.58;1.95;;;3.80;96.70;;;;;;5098283;28;20695;-77
2022/02/08 06:30:09;;;;;;;3.92;1.85;;;3.90;96.70;;;;;;5097836;28;20048;-77
2022/02/08 06:32:38;;;;;;;4.53;1.80;;;3.90;96.70;;;;;;5099705;27;20054;-77
2022/02/08 06:35:14;;;;;;;5.40;2.40;;;3.90;96.70;;;;;;5098841;28;20568;-77
2022/02/08 06:37:42;;;;;;;;;;;3.80;96.70;;;;;;5118921;27;20058;-77
2022/02/08 06:40:11;;;;;;;4.32;1.90;;;3.80;96.70;;;;;;5096859;28;20388;-77
2022/02/08 06:42:42;;;;;;;7.13;2.30;;;3.80;96.70;;;;;;5093796;28;20039;-78
2022/02/08 06:45:14;;;;;;;6.30;2.50;;;3.60;96.70;;;;;;5112490;27;20044;-77
2022/02/08 06:47:43;;;;;;;6.28;2.60;;;3.60;96.70;;;;;;5113379;27;20153;-77
2022/02/08 06:50:13;;;;;;;10.07;3.33;;;3.80;96.70;;;;;;5137277;27;20069;-78
2022/02/08 06:52:41;;;;;;;8.85;4.00;;;3.90;96.70;;;;;;5141005;27;20062;-77
2022/02/08 06:55:10;;;;;;;8.77;4.20;;;3.90;96.70;;;;;;5133398;27;20245;-76
2022/02/08 06:57:49;;;;;;;10.00;4.10;;;4.00;96.70;;;;;;5134892;27;20045;-77
2022/02/08 07:00:22;;;;;;;8.80;3.97;;;3.90;96.70;;;;;;5141305;27;20038;-77
2022/02/08 07:02:50;;;;;;;8.10;4.22;;;3.80;96.70;;;;;;5139510;27;20494;-78
2022/02/08 07:05:20;;;;;;;7.25;3.38;;;3.80;96.70;;;;;;5138582;27;20447;-76
2022/02/08 07:07:48;;;;;;;5.15;2.97;;;3.90;96.70;;;;;;5137403;27;20053;-78
2022/02/08 07:10:16;;;;;;;6.43;3.58;;;3.90;96.70;;;;;;5139653;27;20518;-77
2022/02/08 07:12:44;;;;;;;7.50;3.22;;;3.90;96.70;;;;;;5138928;27;20121;-77
2022/02/08 07:15:14;;;;;;;6.55;3.13;;;3.90;96.70;;;;;;5136134;27;20108;-77
2022/02/08 07:17:43;;;;;;;6.45;2.95;;;4.00;96.70;;;;;;5133454;27;20091;-77
2022/02/08 07:20:12;;;;;;;4.43;2.65;;;4.10;96.70;;;;;;5141497;27;20030;-77
2022/02/08 07:22:41;;;;;;;4.88;2.30;;;4.10;96.70;;;;;;5120831;27;20602;-77
2022/02/08 07:25:10;;;;;;;5.28;2.40;;;4.10;96.70;;;;;;5136591;27;20499;-77
2022/02/08 07:27:39;;;;;;;4.90;2.45;;;4.30;96.70;;;;;;5134276;27;20441;-77
2022/02/08 07:30:11;;;;;;;5.38;2.72;;;4.20;96.70;;;;;;5120182;27;20051;-77
2022/02/08 07:32:41;;;;;;;5.28;3.05;;;4.00;96.70;;;;;;5137875;27;20066;-77
2022/02/08 07:35:28;;;;;;;6.18;3.33;;;4.00;96.70;;;;;;5134035;27;20038;-77
2022/02/08 07:38:07;;;;;;;4.30;2.80;;;4.10;96.70;;;;;;5120592;27;20043;-77
2022/02/08 07:43:04;;;;;;;5.28;3.00;;;4.20;96.70;;;;;;5136857;27;20039;-76
2022/02/08 07:45:44;;;;;;;6.30;2.85;;;4.30;96.70;;;;;;5135326;27;20154;-77
2022/02/08 07:48:14;;;;;;;6.15;2.47;;;4.40;96.70;;;;;;5118714;27;20050;-77
2022/02/08 07:50:50;;;;;;;5.82;2.42;;;4.50;96.70;;;;;;5140638;27;20095;-77
2022/02/08 07:53:22;;;;;;;4.97;2.88;;;4.60;96.70;;;;;;5137912;27;20050;-77
2022/02/08 07:55:50;;;;;;;4.40;2.90;;;4.60;96.70;;;;;;5138690;27;20042;-76
2022/02/08 07:58:18;;;;;;;7.35;3.13;;;4.60;96.70;;;;;;5137159;27;20126;-77
2022/02/08 08:00:46;;;;;;;8.05;3.22;;;4.60;96.70;;;;;;5138126;27;20078;-77
2022/02/08 08:03:14;;;;;;;6.53;2.72;;;4.70;96.70;;;;;;5138505;27;20060;-80
2022/02/08 08:05:42;;;;;;;4.78;3.03;;;4.90;96.70;;;;;;5138462;27;20038;-78
2022/02/08 08:08:12;;;;;;;8.00;2.85;;;4.90;96.70;;;;;;5136940;27;20050;-78
2022/02/08 08:10:46;;;;;;;3.65;2.28;;;4.90;96.70;;;;;;5115679;27;20091;-78
2022/02/08 08:13:17;;;;;;;4.75;2.30;;;4.90;96.70;;;;;;5132062;27;20115;-78
2022/02/08 08:15:51;;;;;;;4.40;1.95;;;5.00;96.70;;;;;;5140663;27;20461;-77
2022/02/08 08:20:51;;;;;;;4.40;2.28;;;5.00;96.70;;;;;;5137906;27;20049;-78
2022/02/08 08:23:21;;;;;;;3.53;2.25;;;5.10;96.70;;;;;;5139144;27;20384;-79
2022/02/08 08:25:51;;;;;;;4.20;2.45;;;5.10;96.70;;;;;;5119078;27;20721;-79
2022/02/08 08:28:19;;;;;;;4.50;2.40;;;5.20;96.70;;;;;;5139751;27;20047;-79
2022/02/08 08:30:47;;;;;;;3.88;2.60;;;5.20;96.70;;;;;;5137478;27;20058;-79
2022/02/08 08:33:15;;;;;;;4.38;2.55;;;5.20;96.70;;;;;;5134960;27;20401;-79
2022/02/08 08:36:04;;;;;;;5.20;2.67;;;5.30;96.70;;;;;;5129344;27;20531;-77
2022/02/08 08:38:33;;;;;;;4.70;2.60;;;5.40;96.70;;;;;;5129839;27;20042;-78
2022/02/08 08:41:21;;;;;;;5.95;3.00;;;5.40;96.70;;;;;;5117285;27;20468;-79
2022/02/08 08:51:50;;;;;;;3.80;2.45;;;5.90;96.70;;;;;;5140995;27;19930;-78
2022/02/08 08:54:18;;;;;;;5.50;3.45;;;6.00;96.70;;;;;;5141233;27;20575;-78
2022/02/08 08:56:49;;;;;;;4.35;2.58;;;6.10;96.70;;;;;;5128542;27;20049;-77
2022/02/08 08:59:19;;;;;;;5.07;2.90;;;6.20;96.70;;;;;;5139515;27;20035;-78
2022/02/08 09:01:50;;;;;;;4.82;3.00;;;6.30;96.70;;;;;;5137600;27;20043;-79
2022/02/08 09:04:19;;;;;;;8.98;3.05;;;6.30;96.70;;;;;;5138735;27;20560;-80
2022/02/08 09:06:50;;;;;;;4.65;2.80;;;6.40;96.70;;;;;;5122106;27;20043;-82
2022/02/08 09:09:23;;;;;;;4.18;2.38;;;6.50;96.70;;;;;;5137269;27;20411;-86
2022/02/08 09:12:19;;;;;;;5.47;2.65;;;6.60;96.70;;;;;;5137994;27;20062;-86
2022/02/08 09:15:03;;;;;;;3.88;1.88;;;6.60;96.70;;;;;;5140784;27;20042;-85
2022/02/08 09:20:41;;;;;;;4.05;2.10;;;6.90;96.70;;;;;;5157650;27;20039;-87
2022/02/08 09:23:25;;;;;;;3.95;2.20;;;7.00;96.70;;;;;;5142920;27;20488;-86
2022/02/08 09:26:04;;;;;;;6.43;2.25;;;7.10;96.70;;;;;;5125965;27;20503;-86
2022/02/08 09:31:04;;;;;;;4.88;2.70;;;7.40;96.70;;;;;;5138724;27;20043;-86
2022/02/08 09:33:33;;;;;;;4.45;2.35;;;7.60;96.70;;;;;;5127431;27;20556;-86
2022/02/08 09:36:01;;;;;;;5.10;2.50;;;7.70;96.70;;;;;;5141575;27;20084;-85
2022/02/08 09:38:31;;;;;;;5.07;3.20;;;7.80;96.70;;;;;;5139916;27;20043;-85
2022/02/08 09:41:00;;;;;;;4.50;2.60;;;7.90;96.70;;;;;;5143163;27;20049;-86
2022/02/08 09:43:29;;;;;;;5.65;2.65;;;8.10;96.70;;;;;;5140030;27;20035;-84
2022/02/08 09:46:01;;;;;;;5.93;3.50;;;8.20;96.70;;;;;;5128986;27;20063;-86
2022/02/08 09:48:45;;;;;;;5.88;3.28;;;8.30;96.70;;;;;;5145218;27;20053;-86
2022/02/08 09:51:13;;;;;;;6.40;2.85;;;8.40;96.70;;;;;;5144965;27;20058;-86
2022/02/08 09:53:43;;;;;;;4.53;2.90;;;8.50;96.70;;;;;;5161338;27;20035;-87
2022/02/08 09:56:12;;;;;;;4.60;3.17;;;8.50;96.70;;;;;;5142607;27;20039;-86
2022/02/08 09:58:41;;;;;;;4.80;3.05;;;8.70;96.70;;;;;;5139685;27;20046;-86
2022/02/08 10:01:13;;;;;;;4.32;2.42;;;8.80;96.70;;;;;;5141056;27;20050;-86
2022/02/08 10:03:52;;;;;;;4.40;2.90;;;8.90;96.70;;;;;;5137662;27;20040;-85
2022/02/08 10:06:21;;;;;;;5.75;3.05;;;9.00;96.70;;;;;;5140960;27;20070;-86
2022/02/08 10:08:59;;;;;;;4.70;2.92;;;9.10;96.70;;;;;;5124655;27;20037;-86
2022/02/08 10:12:17;;;;;;;4.35;2.72;;;9.20;96.70;;;;;;5125443;27;20039;-85
2022/02/08 10:14:41;;;;;;;6.47;2.65;;;9.20;96.70;;;;;;5138822;27;20043;-86
2022/02/08 10:22:50;;;;;;;4.82;3.17;;;9.50;96.70;;;;;;5145202;27;20518;-88
2022/02/08 10:25:43;;;;;;;6.05;2.88;;;9.70;96.70;;;;;;5138916;27;20049;-86
2022/02/08 10:28:53;;;;;;;5.38;2.60;;;9.80;96.70;;;;;;5137562;27;20034;-87
2022/02/08 10:39:16;;;;;;;4.15;2.40;;;10.20;96.20;;;;;;5142130;27;20054;-91
2022/02/08 10:41:47;;;;;;;4.78;2.63;;;10.30;96.20;;;;;;5141695;27;20114;-85
2022/02/08 10:44:16;;;;;;;5.93;2.47;;;10.50;95.90;;;;;;5143648;27;20066;-88
2022/02/08 10:46:44;;;;;;;3.45;2.42;;;10.50;95.60;;;;;;5146299;27;20038;-89
2022/02/08 10:49:15;;;;;;;4.18;2.45;;;10.60;94.90;;;;;;5146932;27;20555;-87
2022/02/08 10:51:49;;;;;;;6.13;3.13;;;10.60;95.70;;;;;;5142067;27;20092;-89
2022/02/08 10:54:32;;;;;;;8.15;2.78;;;10.60;93.20;;;;;;5141100;27;20047;-86
2022/02/08 10:57:07;;;;;;;4.70;2.88;;;10.80;94.10;;;;;;5124742;27;20045;-88
2022/02/08 10:59:41;;;;;;;5.25;3.15;;;10.90;94.00;;;;;;5137931;27;20034;-88
2022/02/08 11:02:28;;;;;;;3.85;2.78;;;10.90;93.40;;;;;;5156239;27;20043;-87
2022/02/08 11:05:11;;;;;;;6.50;3.22;;;11.00;92.50;;;;;;5141539;27;20043;-88
2022/02/08 11:11:00;;;;;;;4.93;2.85;;;11.20;93.00;;;;;;5138056;27;20435;-88
2022/02/08 11:16:09;;;;;;;5.65;3.72;;;11.20;92.00;;;;;;5161579;27;20039;-88
2022/02/08 11:21:24;;;;;;;3.83;2.70;;;11.50;91.40;;;;;;5145239;27;20112;-90
2022/02/08 11:26:29;;;;;;;6.35;3.13;;;11.80;88.70;;;;;;5141722;27;20038;-89
2022/02/08 11:29:08;;;;;;;4.57;2.78;;;11.90;87.30;;;;;;5142010;27;20091;-86
2022/02/08 11:31:41;;;;;;;4.10;3.00;;;12.00;88.00;;;;;;5144954;27;20055;-88
2022/02/08 11:39:07;;;;;;;5.00;3.00;;;12.10;86.30;;;;;;5144683;27;20072;-88
2022/02/08 11:54:36;;;;;;;7.65;3.42;;;13.00;82.40;;;;;;5123569;27;20043;-88
2022/02/08 12:00:20;;;;;;;4.90;2.08;;;13.20;83.50;;;;;;5115569;28;20112;-88
2022/02/08 12:02:58;;;;;;;6.28;3.40;;;13.30;82.50;;;;;;5114569;28;20086;-88
2022/02/08 12:05:43;;;;;;;8.52;2.90;;;13.50;82.10;;;;;;5123681;27;20039;-88
2022/02/08 12:08:13;;;;;;;5.32;2.80;;;13.60;82.00;;;;;;5121513;27;20096;-88
2022/02/08 12:10:55;;;;;;;4.38;2.53;;;13.70;82.50;;;;;;5100937;28;20071;-88
2022/02/08 12:53:17;;;;;;;5.03;2.30;;;15.20;81.20;;;;;;5143097;27;20170;-88
2022/02/08 13:03:40;;;;;;;5.13;2.83;;;15.40;81.30;;;;;;5139796;27;20039;-89
2022/02/08 14:08:10;;;;;;;4.03;1.85;;;15.50;83.30;;;;;;5146131;27;20072;-88
2022/02/08 14:19:03;;;;;;;4.40;2.00;;;15.40;85.40;;;;;;5158343;27;20381;-88
2022/02/08 14:24:31;;;;;;;5.57;2.70;;;15.40;85.90;;;;;;5144247;27;20032;-86
2022/02/08 14:29:44;;;;;;;5.85;2.10;;;15.40;86.50;;;;;;5146969;27;20042;-88
2022/02/08 14:32:25;;;;;;;4.85;1.92;;;15.40;87.00;;;;;;5143597;27;20050;-86
2022/02/08 15:00:16;;;;;;;4.75;1.05;;;14.40;90.40;;;;;;5139194;27;20035;-87
2022/02/08 15:06:04;;;;;;;8.52;2.80;;;14.30;92.30;;;;;;5142737;27;20050;-87
2022/02/08 15:08:27;;;;;;;3.90;1.00;;;14.30;92.90;;;;;;5144424;27;20103;-88
2022/02/08 15:11:03;;;;;;;2.40;1.10;;;14.30;93.30;;;;;;5141571;27;20046;-86
2022/02/08 15:13:34;;;;;;;3.63;1.15;;;14.20;93.50;;;;;;5140044;27;20399;-87
2022/02/08 15:18:48;;;;;;;2.30;1.10;;;14.20;94.10;;;;;;5144921;27;20047;-89
2022/02/08 15:21:22;;;;;;;1.95;0.80;;;14.10;94.80;;;;;;5145826;27;20050;-89
2022/02/08 15:23:50;;;;;;;4.10;0.82;;;14.00;95.30;;;;;;5142285;27;20039;-88
2022/02/08 15:26:19;;;;;;;1.50;0.82;;;14.00;96.20;;;;;;5125992;27;20038;-87
2022/02/08 15:28:49;;;;;;;3.75;0.70;;;14.00;96.40;;;;;;5140314;27;20083;-89
2022/02/08 15:31:18;;;;;;;1.08;0.50;;;14.00;96.70;;;;;;5128706;27;20045;-88
2022/02/08 15:33:46;;;;;;;1.20;0.55;;;14.00;96.70;;;;;;5141905;27;20099;-87
2022/02/08 15:36:16;;;;;;;2.38;0.65;;;14.10;96.70;;;;;;5140126;27;20062;-89
2022/02/08 15:38:52;;;;;;;2.25;1.15;;;15.00;96.70;;;;;;5158113;27;20423;-89
2022/02/08 15:41:21;;;;;;;1.70;1.13;;;16.10;94.20;;;;;;5142777;27;20031;-88
2022/02/08 15:43:51;;;;;;;1.92;0.90;;;16.70;92.40;;;;;;5139110;27;20062;-89
2022/02/08 15:46:24;;;;;;;1.95;1.05;;;17.00;91.40;;;;;;5126617;27;20061;-88
2022/02/08 15:48:53;;;;;;;1.48;0.75;;;17.40;90.70;;;;;;5138602;27;20053;-88
2022/02/08 15:54:36;;;;;;;1.95;0.70;;;17.60;88.70;;;;;;5144276;27;20041;-86
2022/02/08 16:05:39;;;;;;;2.87;0.70;;;16.20;88.70;;;;;;5141526;27;20511;-88
2022/02/08 16:08:29;;;;;;;3.85;1.10;;;15.00;91.30;;;;;;5137705;27;20495;-88
2022/02/08 16:11:30;;;;;;;2.42;0.80;;;14.30;93.50;;;;;;5150920;27;20047;-88
2022/02/08 16:14:00;;;;;;;2.38;1.10;;;13.90;94.80;;;;;;5138533;27;20125;-88
2022/02/08 16:32:35;;;;;;;8.68;2.90;;;12.70;96.70;;;;;;5138146;27;20092;-87
2022/02/08 16:54:25;;;;;;;5.88;1.98;;;12.00;96.70;;;;;;5142822;27;20185;-88
2022/02/08 16:59:31;;;;;;;4.38;1.70;;;11.80;96.70;;;;;;5134979;27;20030;-87
2022/02/08 17:02:03;;;;;;;7.80;1.95;;;11.80;96.70;;;;;;5134317;27;21023;-89
2022/02/08 17:04:35;;;;;;;5.13;1.63;;;11.80;96.70;;;;;;5137445;27;20088;-86
2022/02/08 17:07:04;;;;;;;6.50;1.88;;;11.70;96.70;;;;;;5140030;27;20047;-88
2022/02/08 17:09:55;;;;;;;3.25;1.50;;;11.70;96.70;;;;;;5138180;27;20084;-88
2022/02/08 17:12:35;;;;;;;3.75;1.88;;;11.70;96.70;;;;;;5146587;27;20058;-87
2022/02/08 17:18:28;;;;;;;3.20;1.50;;;11.70;96.70;;;;;;5145406;27;20039;-88
2022/02/08 17:35:11;;;;;;;5.13;2.17;;;11.80;96.70;;;;;;5144701;27;20043;-88
2022/02/08 17:46:11;;;;;;;11.00;7.13;;;11.90;96.70;;;;;;5145874;27;20058;-88
2022/02/08 17:48:39;;;;;;;10.68;6.50;;;11.90;96.70;;;;;;5143420;27;20082;-87
2022/02/08 17:51:08;;;;;;;11.75;6.95;;;11.90;96.70;;;;;;5140896;27;20383;-89
2022/02/08 17:53:58;;;;;;;11.30;6.28;;;11.90;96.70;;;;;;5128411;27;20503;-87
2022/02/08 17:56:27;;;;;;;9.98;6.22;;;11.70;96.70;;;;;;5117648;27;20131;-88
2022/02/08 17:59:02;;;;;;;11.90;7.15;;;11.70;96.70;;;;;;5144098;27;20062;-89
2022/02/08 18:01:32;;;;;;;13.98;7.88;;;11.70;96.70;;;;;;5137640;27;20051;-88
2022/02/08 18:04:01;;;;;;;16.13;7.82;;;11.70;96.70;;;;;;5145264;27;20046;-89
2022/02/08 18:06:29;;;;;;;13.40;7.40;;;11.60;96.70;;;;;;5141264;27;20042;-89
2022/02/08 18:09:02;;;;;;;9.82;6.13;;;11.60;96.70;;;;;;5144035;27;20353;-89
2022/02/08 18:11:36;;;;;;;10.60;6.85;;;11.50;96.70;;;;;;5144405;27;20046;-89
2022/02/08 18:14:13;;;;;;;11.70;7.07;;;11.50;96.70;;;;;;5153332;27;20050;-88
2022/02/08 18:16:42;;;;;;;10.90;6.63;;;11.50;96.70;;;;;;5145799;27;20094;-89
2022/02/08 18:19:16;;;;;;;12.70;6.70;;;11.50;96.70;;;;;;5140467;27;20063;-90
2022/02/08 18:22:11;;;;;;;10.50;6.85;;;11.40;96.70;;;;;;5118890;27;20127;-88
2022/02/08 18:24:56;;;;;;;10.18;6.95;;;11.40;96.70;;;;;;5140392;27;20408;-88
2022/02/08 19:09:05;;;;;;;14.35;8.45;;;10.70;96.70;;;;;;5141731;27;20050;-88
2022/02/08 19:19:40;;;;;;;12.68;8.45;;;10.40;96.70;;;;;;5145257;27;20049;-87
2022/02/08 19:22:09;;;;;;;12.73;7.65;;;10.30;96.70;;;;;;5141450;27;20038;-89
2022/02/08 19:24:38;;;;;;;13.82;8.52;;;10.20;96.70;;;;;;5139982;27;20090;-89
2022/02/08 19:27:07;;;;;;;12.88;8.18;;;10.20;96.70;;;;;;5141553;27;20038;-91
2022/02/08 19:29:37;;;;;;;17.25;8.95;;;10.20;96.70;;;;;;5125453;27;20039;-89
2022/02/08 19:32:08;;;;;;;13.95;8.68;;;10.20;96.70;;;;;;5136382;27;20290;-90
2022/02/08 19:34:39;;;;;;;12.80;8.50;;;10.20;96.70;;;;;;5128285;27;20500;-87
2022/02/08 19:37:08;;;;;;;13.35;8.20;;;10.20;96.70;;;;;;5140575;27;20043;-90
2022/02/08 19:39:41;;;;;;;12.93;9.13;;;10.20;96.70;;;;;;5141329;27;20047;-84
2022/02/08 19:42:11;;;;;;;23.38;12.70;;;10.10;96.70;;;;;;5137308;27;20038;-85
2022/02/08 19:44:42;;;;;;;19.65;12.23;;;10.10;96.70;;;;;;5137444;27;20035;-83
2022/02/08 19:47:11;;;;;;;21.30;13.57;;;9.90;96.70;;;;;;5140539;27;20051;-84
2022/02/08 19:49:41;;;;;;;23.95;13.95;;;9.80;96.70;;;;;;5124827;27;20907;-85
2022/02/08 19:52:10;;;;;;;23.08;13.88;;;9.80;96.70;;;;;;5138255;27;20053;-84
2022/02/08 19:54:53;;;;;;;21.13;14.32;;;9.90;96.70;;;;;;5123209;27;20051;-83
2022/02/08 19:57:25;;;;;;;28.17;14.95;;;9.90;96.70;;;;;;5138470;27;20152;-85
2022/02/08 19:59:58;;;;;;;22.15;14.07;;;9.90;96.70;;;;;;5140841;27;20593;-86
2022/02/08 20:02:29;;;;;;;25.80;15.38;;;9.90;96.70;;;;;;5124912;27;20381;-85
2022/02/08 20:04:57;;;;;;;30.17;17.08;;;9.80;96.70;;;;;;5138750;27;20110;-90
2022/02/08 20:07:26;;;;;;;28.10;15.68;;;9.60;96.70;;;;;;5141198;27;20035;-85
2022/02/08 20:09:55;;;;;;;30.38;14.82;;;9.60;96.70;;;;;;5140539;27;20042;-87
2022/02/08 20:12:28;;;;;;;28.63;15.38;;;9.60;96.70;;;;;;5140852;27;20038;-87
2022/02/08 20:15:05;;;;;;;27.02;14.85;;;9.60;96.70;;;;;;5123958;27;20055;-84
2022/02/08 20:17:35;;;;;;;28.48;15.95;;;9.60;96.70;;;;;;5133382;27;20444;-84
2022/02/08 20:20:13;;;;;;;28.45;15.73;;;9.50;96.70;;;;;;5135948;27;20080;-83
2022/02/08 20:22:50;;;;;;;25.95;16.02;;;9.60;96.70;;;;;;5130420;27;20050;-83
2022/02/08 20:25:22;;;;;;;23.45;14.90;;;9.50;96.70;;;;;;5138221;27;20047;-83
2022/02/08 20:27:59;;;;;;;24.65;15.18;;;9.50;96.70;;;;;;5140889;27;20693;-86
2022/02/08 20:30:31;;;;;;;21.33;14.00;;;9.50;96.70;;;;;;5138665;27;20060;-86
2022/02/08 20:33:02;;;;;;;21.63;13.45;;;9.60;96.70;;;;;;5140440;27;20043;-84
2022/02/08 20:35:31;;;;;;;19.88;13.43;;;9.60;96.70;;;;;;5140920;27;20516;-87
2022/02/08 20:38:02;;;;;;;18.25;12.32;;;9.50;96.70;;;;;;5124459;27;20258;-85
2022/02/08 20:40:31;;;;;;;18.98;12.65;;;9.40;96.70;;;;;;5140171;27;20118;-83
2022/02/08 20:43:03;;;;;;;20.63;13.27;;;9.40;96.70;;;;;;5119221;27;20132;-83
2022/02/08 20:45:37;;;;;;;17.30;11.98;;;9.40;96.70;;;;;;5139060;27;20062;-83
2022/02/08 20:48:06;;;;;;;17.80;11.93;;;9.40;96.70;;;;;;5141268;27;20047;-83
2022/02/08 20:50:37;;;;;;;17.80;11.18;;;9.40;96.70;;;;;;5135640;27;20053;-85
2022/02/08 20:53:14;;;;;;;19.45;13.07;;;9.30;96.70;;;;;;5127291;27;20087;-83
2022/02/08 20:55:45;;;;;;;22.67;13.95;;;9.30;96.70;;;;;;5138068;27;20042;-83
2022/02/08 20:58:17;;;;;;;16.92;11.60;;;9.30;96.70;;;;;;5135268;27;20049;-83
2022/02/08 21:00:49;;;;;;;18.08;11.45;;;9.20;96.70;;;;;;5139621;27;20042;-83
2022/02/08 21:08:26;;;;;;;16.42;10.98;;;9.00;96.70;;;;;;5143616;27;20300;-79
2022/02/08 21:10:57;;;;;;;17.77;11.65;;;9.20;96.70;;;;;;5122663;27;20046;-81
2022/02/08 21:13:42;;;;;;;17.27;11.07;;;9.10;96.70;;;;;;5159573;27;20070;-80
2022/02/08 21:16:14;;;;;;;14.77;10.88;;;9.10;96.70;;;;;;5136666;27;20031;-81
2022/02/08 21:18:43;;;;;;;16.60;10.50;;;9.00;96.70;;;;;;5137118;27;20038;-81
2022/02/08 21:21:11;;;;;;;14.95;9.23;;;9.00;96.70;;;;;;5140218;27;20027;-81
2022/02/08 21:23:42;;;;;;;14.55;8.63;;;9.00;96.70;;;;;;5121465;27;20438;-81
2022/02/08 21:26:17;;;;;;;14.70;9.07;;;9.00;96.70;;;;;;5139284;27;20046;-79
2022/02/08 21:53:00;;;;;;;14.27;8.82;;;8.50;96.70;;;;;;5136635;27;20747;-81
2022/02/08 21:55:30;;;;;;;13.75;8.50;;;8.40;96.70;;;;;;5138345;27;20484;-81
2022/02/08 21:58:01;;;;;;;13.15;8.55;;;8.50;96.70;;;;;;5132967;27;20043;-80
2022/02/08 22:00:32;;;;;;;12.60;8.55;;;8.60;96.70;;;;;;5142681;27;20035;-81
2022/02/08 22:03:03;;;;;;;12.90;8.85;;;8.50;96.70;;;;;;5136430;27;20617;-80
2022/02/08 22:05:33;;;;;;;13.15;8.70;;;8.60;96.70;;;;;;5138907;27;20122;-81
2022/02/08 22:08:14;;;;;;;13.45;8.55;;;8.60;96.70;;;;;;5142453;27;20054;-80
2022/02/08 22:18:57;;;;;;;15.10;8.10;;;8.40;96.70;;;;;;5157135;27;20051;-80
2022/02/08 22:21:37;;;;;;;12.57;8.45;;;8.40;96.70;;;;;;5133745;27;20043;-80
2022/02/08 22:24:18;;;;;;;13.40;8.60;;;8.20;96.70;;;;;;5136023;27;20039;-80
2022/02/08 22:32:20;;;;;;;14.25;8.57;;;8.10;96.70;;;;;;5136916;27;20046;-81
2022/02/08 22:34:59;;;;;;;11.15;7.43;;;8.00;96.70;;;;;;5142162;27;20053;-80
2022/02/08 22:37:34;;;;;;;13.38;7.55;;;8.00;96.70;;;;;;5138222;27;20043;-81
2022/02/08 22:40:18;;;;;;;10.93;7.28;;;8.10;96.70;;;;;;5140266;27;20515;-80
2022/02/08 22:42:49;;;;;;;12.02;7.53;;;8.10;96.70;;;;;;5136571;27;20488;-80
2022/02/08 22:45:18;;;;;;;14.65;9.05;;;7.90;96.70;;;;;;5140637;27;20058;-80
2022/02/08 22:47:46;;;;;;;18.23;11.18;;;7.80;96.70;;;;;;5139287;27;20055;-78
2022/02/08 22:50:16;;;;;;;17.08;10.25;;;7.90;96.70;;;;;;5134972;27;20549;-78
2022/02/08 22:52:44;;;;;;;13.50;8.75;;;7.90;96.70;;;;;;5135261;27;20046;-78
2022/02/08 22:55:12;;;;;;;13.88;9.23;;;8.00;96.70;;;;;;5141566;27;20967;-79
2022/02/08 22:57:40;;;;;;;13.90;8.85;;;7.90;96.70;;;;;;5135276;27;20526;-78
2022/02/08 23:00:12;;;;;;;12.63;7.88;;;7.90;96.70;;;;;;5122687;27;20043;-78
2022/02/08 23:02:42;;;;;;;13.18;8.32;;;7.90;96.70;;;;;;5133803;27;20046;-78
2022/02/08 23:05:18;;;;;;;13.20;8.63;;;7.90;96.70;;;;;;5133098;27;20042;-78
2022/02/08 23:07:49;;;;;;;12.95;8.38;;;7.80;96.70;;;;;;5140461;27;20045;-78
2022/02/08 23:10:24;;;;;;;13.30;7.65;;;7.70;96.70;;;;;;5135840;27;20038;-78
2022/02/08 23:13:04;;;;;;;12.93;7.63;;;7.80;96.70;;;;;;5140713;27;20294;-78
2022/02/08 23:16:16;;;;;;;11.35;7.85;;;7.80;96.70;;;;;;5121407;27;20574;-78
2022/02/08 23:38:05;;;;;;;11.95;6.88;;;7.70;96.70;;;;;;5141816;27;20039;-79
2022/02/08 23:40:35;;;;;;;12.55;6.28;;;7.70;96.70;;;;;;5137544;27;20046;-78
2022/02/08 23:43:03;;;;;;;10.10;6.30;;;7.70;96.70;;;;;;5140990;27;20262;-78
2022/02/08 23:45:31;;;;;;;10.63;6.25;;;7.70;96.70;;;;;;5134499;27;20055;-78
2022/02/08 23:48:16;;;;;;;11.77;6.18;;;7.70;96.70;;;;;;5138708;27;20130;-79
2022/02/08 23:50:57;;;;;;;9.50;5.72;;;7.70;96.70;;;;;;5139849;27;20269;-78
2022/02/08 23:53:35;;;;;;;9.63;5.80;;;7.50;96.70;;;;;;5135152;27;20557;-78
2022/02/08 23:56:12;;;;;;;11.93;5.90;;;7.30;96.70;;;;;;5135079;27;20046;-78
2022/02/08 23:58:45;;;;;;;9.80;5.63;;;7.40;96.70;;;;;;5139029;27;20035;-78
